createdAt,value
2022-12-15T00:04:34.552Z,86.36
2022-12-15T00:09:54.995Z,86.60
2022-12-15T00:15:15.486Z,86.54
2022-12-15T00:20:35.917Z,86.25
2022-12-15T00:25:56.403Z,85.60
2022-12-15T00:31:17.618Z,86.59
2022-12-15T00:36:38.310Z,87.25
2022-12-15T00:41:39.981Z,85.68
2022-12-15T00:46:56.931Z,85.85
2022-12-15T00:52:17.623Z,86.73
2022-12-15T00:57:37.907Z,85.70
2022-12-15T01:02:58.384Z,86.80
2022-12-15T01:08:18.965Z,87.49
2022-12-15T01:13:39.041Z,87.07
2022-12-15T01:18:59.341Z,86.88
2022-12-15T01:24:00.944Z,86.28
2022-12-15T01:29:02.633Z,86.77
2022-12-15T01:34:04.195Z,86.92
2022-12-15T01:39:05.944Z,86.55
2022-12-15T01:44:17.259Z,87.26
2022-12-15T01:49:23.708Z,86.59
2022-12-15T01:54:29.062Z,87.73
2022-12-15T01:59:38.981Z,86.46
2022-12-15T02:04:41.736Z,86.83
2022-12-15T02:09:46.994Z,87.88
2022-12-15T02:15:01.144Z,86.84
2022-12-15T02:20:23.717Z,86.73
2022-12-15T02:25:55.143Z,88.21
2022-12-15T02:31:34.404Z,87.55
2022-12-15T02:36:41.733Z,87.47
2022-12-15T02:41:46.228Z,88.07
2022-12-15T02:47:24.821Z,87.94
2022-12-15T02:52:41.265Z,88.82
2022-12-15T02:57:59.496Z,89.05
2022-12-15T03:03:01.694Z,88.37
2022-12-15T03:08:03.731Z,89.24
2022-12-15T03:13:05.824Z,88.58
2022-12-15T03:18:07.490Z,88.70
2022-12-15T03:23:09.720Z,88.09
2022-12-15T03:28:11.351Z,87.84
2022-12-15T03:33:13.043Z,88.18
2022-12-15T03:38:14.646Z,87.83
2022-12-15T03:43:16.341Z,88.09
2022-12-15T03:48:17.999Z,88.12
2022-12-15T03:53:19.750Z,87.29
2022-12-15T03:58:21.594Z,88.46
2022-12-15T04:03:23.391Z,88.21
2022-12-15T04:08:26.837Z,87.66
2022-12-15T04:13:28.915Z,88.04
2022-12-15T04:18:30.911Z,87.45
2022-12-15T04:23:33.030Z,88.59
2022-12-15T04:28:53.936Z,88.11
2022-12-15T04:34:18.327Z,88.48
2022-12-15T04:39:38.956Z,87.97
2022-12-15T04:44:59.081Z,89.04
2022-12-15T04:50:19.053Z,87.21
2022-12-15T04:55:39.508Z,88.57
2022-12-15T05:00:59.860Z,87.62
2022-12-15T05:06:20.871Z,88.89
2022-12-15T05:11:41.438Z,87.20
2022-12-15T05:17:01.370Z,86.68
2022-12-15T05:22:21.513Z,87.36
2022-12-15T05:27:41.833Z,87.98
2022-12-15T05:32:43.435Z,87.91
2022-12-15T05:37:45.355Z,86.70
2022-12-15T05:42:50.142Z,87.70
2022-12-15T05:47:52.959Z,86.56
2022-12-15T05:52:55.738Z,87.09
2022-12-15T05:57:58.552Z,86.34
2022-12-15T06:03:00.336Z,87.16
2022-12-15T06:08:02.271Z,87.27
2022-12-15T06:19:29.155Z,85.38
2022-12-15T06:24:30.830Z,85.66
2022-12-15T06:29:32.502Z,86.35
2022-12-15T06:34:34.105Z,85.68
2022-12-15T06:39:35.868Z,86.29
2022-12-15T06:44:37.790Z,86.31
2022-12-15T06:49:39.637Z,85.86
2022-12-15T06:54:41.574Z,86.25
2022-12-15T06:59:43.334Z,86.72
2022-12-15T07:04:45.022Z,85.78
2022-12-15T07:09:46.917Z,86.56
2022-12-15T07:14:53.330Z,86.14
2022-12-15T07:19:55.738Z,86.06
2022-12-15T07:24:57.577Z,85.84
2022-12-15T07:29:59.350Z,86.69
2022-12-15T07:35:01.056Z,86.96
2022-12-15T07:40:03.904Z,86.17
2022-12-15T07:45:07.504Z,86.47
2022-12-15T07:50:09.715Z,86.10
2022-12-15T07:55:11.451Z,85.99
2022-12-15T08:00:14.989Z,86.25
2022-12-15T08:05:16.822Z,86.41
2022-12-15T08:10:19.762Z,86.30
2022-12-15T08:15:21.619Z,87.82
2022-12-15T08:20:23.376Z,87.02
2022-12-15T08:25:28.670Z,87.70
2022-12-15T08:30:30.476Z,87.56
2022-12-15T08:35:55.873Z,87.45
2022-12-15T08:40:54.135Z,88.13
2022-12-15T08:45:56.139Z,88.43
2022-12-15T08:50:59.557Z,88.22
2022-12-15T08:56:06.342Z,88.19
2022-12-15T09:01:20.580Z,89.08
2022-12-15T09:06:25.610Z,89.37
2022-12-15T09:11:29.113Z,89.04
2022-12-15T09:16:31.440Z,89.13
2022-12-15T09:21:33.218Z,89.29
2022-12-15T09:26:35.229Z,89.83
2022-12-15T09:31:38.027Z,89.51
2022-12-15T09:36:40.944Z,90.20
2022-12-15T09:41:51.837Z,89.64
2022-12-15T09:47:18.774Z,89.19
2022-12-15T09:52:24.663Z,88.97
2022-12-15T09:57:49.148Z,88.55
2022-12-15T10:03:01.223Z,89.20
2022-12-15T10:08:03.589Z,88.55
2022-12-15T10:13:15.107Z,88.19
2022-12-15T10:18:23.777Z,87.84
2022-12-15T10:23:25.671Z,88.13
2022-12-15T10:28:33.330Z,86.74
2022-12-15T10:33:39.851Z,87.63
2022-12-15T10:38:45.477Z,87.73
2022-12-15T10:43:52.261Z,87.59
2022-12-15T10:48:58.005Z,87.03
2022-12-15T10:54:09.801Z,87.07
2022-12-15T10:59:23.654Z,86.15
2022-12-15T11:04:31.000Z,86.66
2022-12-15T11:09:36.226Z,86.12
2022-12-15T11:14:44.899Z,85.58
2022-12-15T11:20:12.161Z,85.45
2022-12-15T11:25:23.908Z,85.75
2022-12-15T11:30:33.837Z,86.30
2022-12-15T11:35:50.725Z,86.41
2022-12-15T11:40:54.708Z,86.05
2022-12-15T11:46:23.409Z,86.07
2022-12-15T11:51:50.967Z,84.90
2022-12-15T11:57:13.634Z,86.36
2022-12-15T12:02:30.156Z,85.13
2022-12-15T12:07:43.329Z,84.82
2022-12-15T12:12:54.004Z,86.14
2022-12-15T12:18:06.280Z,85.73
2022-12-15T12:23:31.490Z,86.75
2022-12-15T12:28:54.561Z,85.90
2022-12-15T12:34:04.522Z,86.89
2022-12-15T12:39:06.884Z,87.08
2022-12-15T12:44:29.732Z,86.78
2022-12-15T12:50:03.672Z,85.19
2022-12-15T12:55:26.432Z,82.85
2022-12-15T13:00:31.145Z,83.25
2022-12-15T13:05:35.876Z,83.22
2022-12-15T13:10:48.310Z,84.30
2022-12-15T13:16:06.088Z,83.95
2022-12-15T13:21:35.499Z,83.82
2022-12-15T13:26:44.247Z,84.87
2022-12-15T13:31:51.150Z,84.82
2022-12-15T13:36:55.904Z,86.07
2022-12-15T13:42:34.137Z,85.94
2022-12-15T13:47:38.282Z,86.36
2022-12-15T13:58:17.518Z,87.72
2022-12-15T14:03:19.871Z,87.98
2022-12-15T14:08:24.501Z,88.65
2022-12-15T14:13:34.254Z,89.64
2022-12-15T14:18:39.155Z,90.09
2022-12-15T14:24:04.122Z,91.22
2022-12-15T14:29:06.264Z,90.53
2022-12-15T14:34:40.076Z,90.79
2022-12-15T14:39:45.201Z,91.11
2022-12-15T14:44:51.366Z,91.43
2022-12-15T14:49:58.370Z,92.14
2022-12-15T14:55:03.417Z,92.41
2022-12-15T15:00:23.835Z,93.18
2022-12-15T15:05:27.848Z,93.37
2022-12-15T15:10:30.310Z,92.67
2022-12-15T15:15:32.105Z,92.93
2022-12-15T15:20:37.980Z,92.85
2022-12-15T15:25:48.636Z,92.35
2022-12-15T15:30:59.394Z,92.03
2022-12-15T15:36:03.184Z,91.56
2022-12-15T15:41:18.258Z,90.90
2022-12-15T15:46:23.052Z,92.06
2022-12-15T15:51:26.273Z,91.81
2022-12-15T15:56:28.856Z,92.63
2022-12-15T16:01:30.607Z,93.71
2022-12-15T16:06:33.769Z,93.68
2022-12-15T16:11:36.540Z,93.60
2022-12-15T16:16:38.818Z,93.21
2022-12-15T16:21:42.826Z,94.05
2022-12-15T16:26:49.114Z,94.11
2022-12-15T16:31:51.133Z,94.59
2022-12-15T16:36:53.204Z,94.99
2022-12-15T16:41:56.074Z,95.13
2022-12-15T16:46:59.384Z,96.43
2022-12-15T16:52:01.610Z,95.95
2022-12-15T16:57:03.887Z,96.30
2022-12-15T17:02:27.559Z,96.70
2022-12-15T17:07:29.725Z,96.21
2022-12-15T17:12:32.013Z,96.82
2022-12-15T17:17:34.001Z,96.77
2022-12-15T17:22:36.725Z,96.32
2022-12-15T17:27:38.878Z,96.46
2022-12-15T17:32:40.823Z,96.81
2022-12-15T17:37:44.320Z,96.79
2022-12-15T17:42:46.833Z,97.47
2022-12-15T17:47:50.380Z,97.57
2022-12-15T17:52:52.133Z,97.11
2022-12-15T17:57:55.798Z,97.50
2022-12-15T18:02:59.453Z,96.80
2022-12-15T18:08:04.753Z,97.66
2022-12-15T18:13:33.338Z,97.79
2022-12-15T18:18:40.398Z,97.29
2022-12-15T18:23:44.568Z,96.65
2022-12-15T18:28:50.058Z,97.29
2022-12-15T18:33:52.846Z,96.92
2022-12-15T18:38:55.322Z,97.29
2022-12-15T18:43:59.088Z,97.63
2022-12-15T18:49:01.071Z,97.03
2022-12-15T18:54:03.931Z,97.08
2022-12-15T18:59:10.535Z,97.56
2022-12-15T19:04:13.422Z,96.68
2022-12-15T19:09:23.367Z,97.00
2022-12-15T19:14:43.081Z,97.67
2022-12-15T19:20:03.731Z,96.81
2022-12-15T19:25:06.515Z,97.57
2022-12-15T19:30:17.749Z,97.02
2022-12-15T19:35:20.399Z,97.08
2022-12-15T19:40:30.845Z,97.46
2022-12-15T19:45:33.925Z,97.63
2022-12-15T19:50:37.930Z,97.35
2022-12-15T19:55:40.776Z,97.77
2022-12-15T20:00:43.970Z,97.29
2022-12-15T20:05:46.792Z,97.53
2022-12-15T20:10:51.442Z,97.25
2022-12-15T20:15:55.408Z,96.96
2022-12-15T20:20:57.811Z,97.14
2022-12-15T20:26:00.809Z,97.70
2022-12-15T20:31:03.780Z,97.73
2022-12-15T20:36:12.300Z,98.23
2022-12-15T20:41:25.681Z,97.47
2022-12-15T20:46:35.068Z,97.85
2022-12-15T20:51:37.368Z,98.14
2022-12-15T20:56:39.883Z,98.48
2022-12-15T21:01:43.525Z,97.94
2022-12-15T21:06:48.702Z,98.68
2022-12-15T21:11:55.520Z,98.67
2022-12-15T21:16:58.187Z,98.69
2022-12-15T21:22:01.172Z,99.34
2022-12-15T21:27:04.284Z,99.33
2022-12-15T21:32:05.898Z,99.97
2022-12-15T21:37:30.416Z,100.00
2022-12-15T21:42:35.393Z,100.00
2022-12-15T21:47:55.563Z,100.00
2022-12-15T21:52:57.236Z,100.00
2022-12-15T21:57:58.919Z,100.00
2022-12-15T22:03:00.692Z,100.00
2022-12-15T22:08:14.519Z,100.00
2022-12-15T22:13:20.818Z,100.00
2022-12-15T22:18:23.626Z,100.00
2022-12-15T22:23:25.312Z,100.00
2022-12-15T22:28:28.466Z,100.00
2022-12-15T22:33:31.732Z,100.00
2022-12-15T22:38:34.029Z,100.00
2022-12-15T22:43:39.500Z,100.00
2022-12-15T22:48:43.622Z,100.00
2022-12-15T22:53:45.759Z,100.00
2022-12-15T22:58:48.318Z,100.00
2022-12-15T23:03:51.414Z,100.00
2022-12-15T23:08:55.829Z,100.00
2022-12-15T23:13:58.210Z,100.00
2022-12-15T23:19:00.513Z,100.00
2022-12-15T23:24:02.199Z,100.00
2022-12-15T23:29:03.996Z,100.00
2022-12-15T23:34:05.943Z,100.00
2022-12-15T23:39:07.562Z,100.00
2022-12-15T23:44:12.322Z,100.00
2022-12-15T23:49:14.079Z,100.00
2022-12-15T23:54:15.783Z,100.00
2022-12-15T23:59:17.777Z,100.00
